createdAt,value
2023-03-27T05:02:33.773Z,2.10
2023-03-27T05:05:08.939Z,2.30
2023-03-27T05:07:37.532Z,2.38
2023-03-27T05:10:06.646Z,2.23
2023-03-27T05:12:34.626Z,2.30
2023-03-27T05:15:06.159Z,2.60
2023-03-27T05:17:42.136Z,2.70
2023-03-27T05:20:14.338Z,2.63
2023-03-27T05:22:42.616Z,2.40
2023-03-27T05:27:50.014Z,2.85
2023-03-27T05:30:20.824Z,3.55
2023-03-27T05:32:53.898Z,2.50
2023-03-27T05:35:28.349Z,3.33
2023-03-27T05:37:59.239Z,2.47
2023-03-27T05:40:31.452Z,2.67
2023-03-27T05:42:58.755Z,3.33
2023-03-27T05:45:29.181Z,4.43
2023-03-27T05:47:58.874Z,3.05
2023-03-27T05:50:29.646Z,3.88
2023-03-27T05:53:01.484Z,3.42
2023-03-27T05:55:38.118Z,3.08
2023-03-27T05:58:10.277Z,3.25
2023-03-27T06:00:38.836Z,2.78
2023-03-27T06:03:07.243Z,2.97
2023-03-27T06:05:50.899Z,3.47
2023-03-27T06:08:18.873Z,3.70
2023-03-27T06:10:46.131Z,4.85
2023-03-27T06:13:24.454Z,4.78
2023-03-27T06:15:57.027Z,4.47
2023-03-27T06:18:37.686Z,3.40
2023-03-27T06:21:04.700Z,3.72
2023-03-27T06:23:32.195Z,4.07
2023-03-27T06:25:59.417Z,3.10
2023-03-27T06:28:28.867Z,3.85
2023-03-27T06:30:57.653Z,4.22
2023-03-27T06:33:32.176Z,3.80
2023-03-27T06:36:02.540Z,4.88
2023-03-27T06:38:33.283Z,3.57
2023-03-27T06:41:01.485Z,3.53
2023-03-27T06:43:54.760Z,3.30
2023-03-27T06:46:45.084Z,4.20
2023-03-27T06:49:18.866Z,3.70
2023-03-27T06:51:45.951Z,4.55
2023-03-27T06:54:14.905Z,3.83
2023-03-27T06:56:46.901Z,4.80
2023-03-27T06:59:21.735Z,3.28
2023-03-27T07:01:53.630Z,4.78
2023-03-27T07:04:27.766Z,3.47
2023-03-27T07:07:23.527Z,3.35
2023-03-27T07:09:51.164Z,3.00
2023-03-27T07:12:22.443Z,3.20
2023-03-27T07:14:49.742Z,3.58
2023-03-27T07:17:16.833Z,3.03
2023-03-27T07:19:49.286Z,3.28
2023-03-27T07:22:17.926Z,3.42
2023-03-27T07:24:45.406Z,2.97
2023-03-27T07:27:12.031Z,2.70
2023-03-27T07:29:40.809Z,2.85
2023-03-27T07:32:09.792Z,3.78
2023-03-27T07:34:44.111Z,3.40
2023-03-27T07:37:38.266Z,3.17
2023-03-27T07:40:38.994Z,2.45
2023-03-27T07:43:27.472Z,2.55
2023-03-27T07:45:54.996Z,2.80
2023-03-27T07:48:22.350Z,2.92
2023-03-27T07:50:48.986Z,3.58
2023-03-27T07:53:33.674Z,2.92
2023-03-27T07:56:33.967Z,2.45
2023-03-27T07:59:30.299Z,4.75
2023-03-27T08:02:02.985Z,2.63
2023-03-27T08:04:32.160Z,2.65
2023-03-27T08:07:04.380Z,2.53
2023-03-27T08:09:32.390Z,3.20
2023-03-27T08:11:59.013Z,2.70
2023-03-27T08:14:29.773Z,2.80
2023-03-27T08:17:12.470Z,2.50
2023-03-27T08:19:45.709Z,3.13
2023-03-27T08:22:13.900Z,3.63
2023-03-27T08:25:01.076Z,2.47
2023-03-27T08:27:28.029Z,2.42
2023-03-27T08:29:55.361Z,2.40
2023-03-27T08:32:22.052Z,2.80
2023-03-27T08:34:51.234Z,2.70
2023-03-27T08:37:22.222Z,2.45
2023-03-27T08:40:23.828Z,2.83
2023-03-27T08:43:07.237Z,4.18
2023-03-27T08:45:45.834Z,2.10
2023-03-27T08:48:21.884Z,2.88
2023-03-27T08:50:55.925Z,2.05
2023-03-27T08:53:34.989Z,1.95
2023-03-27T08:56:04.148Z,2.50
2023-03-27T08:58:44.006Z,2.40
2023-03-27T09:01:45.396Z,2.20
2023-03-27T09:04:48.970Z,2.17
2023-03-27T09:07:44.077Z,2.35
2023-03-27T09:10:32.284Z,2.13
2023-03-27T09:13:20.772Z,1.60
2023-03-27T09:16:03.384Z,2.38
2023-03-27T09:18:34.032Z,1.65
2023-03-27T09:21:10.942Z,1.90
2023-03-27T09:23:45.767Z,1.77
2023-03-27T09:26:17.212Z,2.35
2023-03-27T09:29:31.510Z,1.50
2023-03-27T09:32:24.523Z,1.80
2023-03-27T09:34:51.767Z,1.60
2023-03-27T09:37:18.676Z,1.20
2023-03-27T09:39:52.421Z,1.83
2023-03-27T09:42:30.613Z,2.03
2023-03-27T09:45:03.079Z,1.10
2023-03-27T09:47:40.710Z,1.55
2023-03-27T09:50:28.328Z,1.45
2023-03-27T09:53:12.782Z,3.97
2023-03-27T09:56:12.991Z,3.13
2023-03-27T09:58:46.379Z,1.60
2023-03-27T10:01:16.600Z,2.22
2023-03-27T10:03:53.585Z,2.05
2023-03-27T10:06:43.462Z,1.92
2023-03-27T10:09:35.288Z,3.05
2023-03-27T10:12:07.899Z,1.77
2023-03-27T10:14:42.934Z,1.50
2023-03-27T10:17:28.534Z,2.05
2023-03-27T10:20:14.319Z,1.60
2023-03-27T10:22:52.535Z,2.28
2023-03-27T10:25:32.562Z,2.17
2023-03-27T10:28:21.211Z,2.53
2023-03-27T10:31:28.426Z,1.20
2023-03-27T10:34:33.685Z,1.60
2023-03-27T10:37:27.569Z,1.95
2023-03-27T10:40:18.635Z,2.00
2023-03-27T10:42:48.836Z,1.40
2023-03-27T10:45:18.567Z,1.60
2023-03-27T10:50:46.072Z,1.88
2023-03-27T10:53:23.103Z,1.48
2023-03-27T10:56:26.231Z,2.20
2023-03-27T10:59:04.092Z,1.40
2023-03-27T11:01:48.930Z,1.80
2023-03-27T11:04:35.705Z,2.33
2023-03-27T11:07:16.427Z,1.40
2023-03-27T11:10:05.930Z,2.42
2023-03-27T11:12:37.466Z,1.75
2023-03-27T11:15:20.851Z,1.67
2023-03-27T11:18:14.003Z,1.55
2023-03-27T11:20:52.156Z,2.47
2023-03-27T11:23:42.310Z,1.63
2023-03-27T11:26:49.285Z,1.67
2023-03-27T11:29:29.330Z,1.23
2023-03-27T11:32:06.419Z,1.60
2023-03-27T11:35:02.707Z,1.02
2023-03-27T11:38:08.753Z,1.35
2023-03-27T11:40:47.913Z,1.40
2023-03-27T11:43:17.904Z,2.75
2023-03-27T11:46:00.375Z,1.52
2023-03-27T11:48:50.836Z,1.98
2023-03-27T11:51:42.014Z,2.13
2023-03-27T11:57:08.548Z,2.75
2023-03-27T12:00:18.487Z,1.17
2023-03-27T12:02:57.370Z,1.40
2023-03-27T12:05:53.728Z,1.10
2023-03-27T12:08:41.149Z,1.33
2023-03-27T12:11:11.371Z,1.00
2023-03-27T12:14:18.586Z,1.05
2023-03-27T12:17:07.114Z,1.30
2023-03-27T12:20:52.505Z,2.15
2023-03-27T12:23:40.058Z,1.55
2023-03-27T12:27:07.747Z,1.08
2023-03-27T12:30:05.950Z,0.88
2023-03-27T12:32:45.586Z,0.90
2023-03-27T12:35:21.273Z,1.23
2023-03-27T12:37:59.163Z,0.60
2023-03-27T12:40:31.354Z,0.77
2023-03-27T12:43:28.028Z,0.52
2023-03-27T12:46:14.084Z,0.65
2023-03-27T12:48:58.195Z,1.02
2023-03-27T12:51:53.983Z,0.52
2023-03-27T12:55:06.037Z,0.57
2023-03-27T12:57:53.588Z,0.93
2023-03-27T13:00:40.810Z,1.00
2023-03-27T13:03:47.594Z,1.60
2023-03-27T13:06:39.168Z,1.17
2023-03-27T13:09:43.872Z,1.02
2023-03-27T13:12:29.543Z,1.60
2023-03-27T13:15:08.476Z,1.05
2023-03-27T13:18:05.966Z,1.60
2023-03-27T13:20:48.082Z,1.27
2023-03-27T13:23:37.465Z,1.27
2023-03-27T13:26:10.404Z,1.10
2023-03-27T13:28:48.928Z,1.30
2023-03-27T13:31:46.744Z,2.22
2023-03-27T13:34:36.170Z,1.30
2023-03-27T13:37:10.030Z,1.55
2023-03-27T13:40:07.785Z,0.60
2023-03-27T13:42:44.354Z,0.55
2023-03-27T13:45:26.089Z,0.73
2023-03-27T13:48:54.574Z,2.22
2023-03-27T13:51:39.866Z,0.60
2023-03-27T13:54:44.028Z,0.80
2023-03-27T13:57:20.884Z,0.88
2023-03-27T14:00:12.110Z,0.70
2023-03-27T14:02:47.431Z,1.10
2023-03-27T14:05:27.773Z,0.60
2023-03-27T14:08:06.255Z,0.98
2023-03-27T14:10:58.722Z,0.80
2023-03-27T14:14:11.795Z,1.00
2023-03-27T14:16:45.216Z,1.15
2023-03-27T14:19:17.922Z,1.00
2023-03-27T14:21:58.947Z,0.50
2023-03-27T14:24:45.679Z,0.77
2023-03-27T14:30:20.415Z,1.42
2023-03-27T14:33:06.846Z,1.35
2023-03-27T14:35:39.074Z,0.52
2023-03-27T14:38:29.381Z,0.80
2023-03-27T14:40:59.553Z,0.95
2023-03-27T14:43:48.997Z,1.13
2023-03-27T14:46:16.868Z,0.80
2023-03-27T14:48:46.717Z,0.90
2023-03-27T14:51:21.312Z,1.10
2023-03-27T14:53:52.472Z,0.63
2023-03-27T14:56:37.285Z,1.13
2023-03-27T14:59:17.817Z,1.08
2023-03-27T15:01:50.678Z,3.20
2023-03-27T15:04:19.309Z,1.90
2023-03-27T15:06:49.774Z,2.30
2023-03-27T15:09:37.623Z,1.77
2023-03-27T15:12:18.108Z,2.67
2023-03-27T15:14:46.232Z,2.55
2023-03-27T15:17:17.691Z,5.15
2023-03-27T15:19:51.509Z,3.47
2023-03-27T15:22:30.830Z,7.30
2023-03-27T15:25:07.317Z,5.03
2023-03-27T15:27:38.249Z,3.38
2023-03-27T15:30:40.766Z,3.88
2023-03-27T15:33:16.054Z,6.95
2023-03-27T15:35:46.944Z,3.55
2023-03-27T15:38:17.360Z,1.98
2023-03-27T15:40:46.792Z,5.65
2023-03-27T15:46:02.044Z,5.53
2023-03-27T15:48:40.749Z,3.17
2023-03-27T15:51:19.105Z,2.13
2023-03-27T15:53:48.932Z,2.85
2023-03-27T15:56:39.819Z,2.33
2023-03-27T15:59:09.766Z,2.50
2023-03-27T16:01:39.114Z,2.10
2023-03-27T16:04:18.255Z,1.80
2023-03-27T16:06:51.190Z,1.40
2023-03-27T16:09:30.731Z,1.20
2023-03-27T16:11:58.336Z,1.27
2023-03-27T16:14:33.234Z,1.02
2023-03-27T16:17:11.747Z,1.48
2023-03-27T16:19:56.595Z,1.67
2023-03-27T16:22:27.438Z,1.30
2023-03-27T16:24:54.972Z,1.20
2023-03-27T16:27:25.092Z,2.03
2023-03-27T16:29:53.475Z,1.88
2023-03-27T16:32:22.043Z,1.95
2023-03-27T16:34:51.722Z,1.85
2023-03-27T16:37:24.137Z,4.05
2023-03-27T16:39:51.605Z,9.75
2023-03-27T16:42:25.253Z,10.10
2023-03-27T16:44:53.638Z,2.40
2023-03-27T16:47:23.031Z,1.27
2023-03-27T16:50:03.501Z,1.38
2023-03-27T16:52:36.971Z,0.77
2023-03-27T16:55:07.250Z,1.90
2023-03-27T16:57:34.793Z,1.65
2023-03-27T17:00:02.169Z,1.60
2023-03-27T17:02:30.684Z,1.88
2023-03-27T17:04:59.221Z,1.02
2023-03-27T17:07:27.412Z,2.15
2023-03-27T17:09:55.159Z,1.42
2023-03-27T17:12:21.803Z,1.73
2023-03-27T17:14:49.081Z,1.48
2023-03-27T17:17:15.950Z,1.70
2023-03-27T17:19:43.222Z,1.67
2023-03-27T17:22:12.601Z,1.00
2023-03-27T17:27:25.701Z,1.50
2023-03-27T17:29:55.825Z,2.95
2023-03-27T17:32:23.185Z,2.70
2023-03-27T17:34:52.398Z,2.50
2023-03-27T17:37:20.793Z,2.17
2023-03-27T17:39:48.605Z,1.70
2023-03-27T17:42:15.398Z,1.80
2023-03-27T17:44:42.868Z,2.30
2023-03-27T17:47:09.458Z,2.03
2023-03-27T17:49:36.737Z,1.95
2023-03-27T17:52:08.002Z,1.70
2023-03-27T17:54:35.492Z,2.80
2023-03-27T17:57:02.463Z,4.22
2023-03-27T17:59:31.356Z,4.43
2023-03-27T18:01:58.310Z,7.45
2023-03-27T18:04:25.650Z,4.57
2023-03-27T18:06:52.717Z,3.65
2023-03-27T18:09:19.930Z,2.83
2023-03-27T18:11:46.996Z,3.58
2023-03-27T18:14:15.599Z,3.47
2023-03-27T18:16:42.680Z,3.67
2023-03-27T18:19:10.210Z,9.75
2023-03-27T18:21:36.817Z,17.52
2023-03-27T18:24:04.262Z,6.55
2023-03-27T18:26:31.128Z,4.18
2023-03-27T18:28:58.387Z,4.85
2023-03-27T18:31:25.482Z,4.28
2023-03-27T18:33:53.014Z,2.80
2023-03-27T18:36:20.336Z,3.10
2023-03-27T18:38:49.608Z,2.83
2023-03-27T18:41:16.512Z,1.80
2023-03-27T18:43:43.824Z,2.03
2023-03-27T18:46:16.252Z,2.50
2023-03-27T18:48:45.073Z,2.33
2023-03-27T18:51:12.540Z,2.05
2023-03-27T18:53:40.214Z,3.00
2023-03-27T18:56:08.001Z,3.35
2023-03-27T18:58:36.298Z,3.80
2023-03-27T19:01:08.862Z,3.00
2023-03-27T19:03:37.123Z,2.97
2023-03-27T19:06:06.353Z,3.42
2023-03-27T19:08:34.638Z,2.55
2023-03-27T19:11:01.698Z,3.20
2023-03-27T19:13:47.642Z,2.90
2023-03-27T19:16:37.536Z,2.85
2023-03-27T19:19:40.582Z,2.45
2023-03-27T19:22:33.874Z,1.90
2023-03-27T19:25:06.390Z,1.90
2023-03-27T19:27:38.801Z,3.35
2023-03-27T19:30:08.552Z,5.90
2023-03-27T19:32:35.554Z,13.15
2023-03-27T19:35:03.248Z,21.77
2023-03-27T19:37:29.828Z,25.17
2023-03-27T19:39:59.794Z,14.05
2023-03-27T19:42:28.433Z,11.30
2023-03-27T19:44:55.931Z,6.88
2023-03-27T19:47:22.683Z,10.10
2023-03-27T19:49:49.960Z,7.15
2023-03-27T19:52:31.337Z,4.68
2023-03-27T19:54:57.985Z,3.92
2023-03-27T19:57:25.650Z,3.28
2023-03-27T19:59:52.848Z,3.08
2023-03-27T20:02:20.093Z,2.90
2023-03-27T20:04:48.769Z,2.45
2023-03-27T20:07:16.166Z,4.53
2023-03-27T20:09:42.731Z,4.68
2023-03-27T20:12:11.293Z,4.50
2023-03-27T20:14:38.514Z,5.63
2023-03-27T20:17:12.236Z,8.32
2023-03-27T20:19:50.037Z,6.85
2023-03-27T20:22:20.795Z,5.60
2023-03-27T20:24:48.900Z,6.35
2023-03-27T20:27:20.062Z,6.25
2023-03-27T20:29:47.319Z,3.88
